Terminal Aerodrome Forecast
Issued by NWS

Home | Current Version | Previous Version | Text Only | Print | Product List | Glossary On
Versions: 1 2 3 4 5 6 7 8 9 10 11 12 13 14 15 16 17 18 19 20 21 22 23 24 25 26 27
000
FTUS45 KBOI 202328
TAFJER
TAF
KJER 202328Z 2100/2124 15005KT P6SM BKN100
     FM210900 20010KT P6SM -SHRA SCT060 BKN120
     FM211500 24012G20KT P6SM -SHRA BKN050 OVC090
     FM211800 24015G25KT P6SM VCSH SCT060 BKN120
     FM212200 25015G25KT P6SM SCT080=

USA.gov is the U.S. government's official web portal to all federal, state and local government web resources and services.